sensor_id;sensor_type;location;lat;lon;timestamp;P1;durP1;ratioP1;P2;durP2;ratioP2
78877;SDS011;68257;43.514;1.498;2023-04-24T00:01:26;8.20;;;3.33;;
78877;SDS011;68257;43.514;1.498;2023-04-24T00:03:51;7.83;;;3.73;;
78877;SDS011;68257;43.514;1.498;2023-04-24T00:06:17;7.90;;;3.65;;
78877;SDS011;68257;43.514;1.498;2023-04-24T00:08:42;7.40;;;3.65;;
78877;SDS011;68257;43.514;1.498;2023-04-24T00:11:08;6.20;;;3.75;;
78877;SDS011;68257;43.514;1.498;2023-04-24T00:13:34;10.88;;;3.97;;
78877;SDS011;68257;43.514;1.498;2023-04-24T00:16:00;9.20;;;3.45;;
78877;SDS011;68257;43.514;1.498;2023-04-24T00:18:25;6.70;;;2.83;;
78877;SDS011;68257;43.514;1.498;2023-04-24T00:20:51;7.57;;;3.00;;
78877;SDS011;68257;43.514;1.498;2023-04-24T00:23:16;6.00;;;2.80;;
78877;SDS011;68257;43.514;1.498;2023-04-24T00:25:41;6.27;;;2.83;;
78877;SDS011;68257;43.514;1.498;2023-04-24T00:28:07;6.05;;;3.10;;
78877;SDS011;68257;43.514;1.498;2023-04-24T00:30:32;7.23;;;2.87;;
78877;SDS011;68257;43.514;1.498;2023-04-24T00:32:58;7.97;;;2.70;;
78877;SDS011;68257;43.514;1.498;2023-04-24T00:35:23;5.53;;;2.70;;
78877;SDS011;68257;43.514;1.498;2023-04-24T00:37:49;6.25;;;2.85;;
78877;SDS011;68257;43.514;1.498;2023-04-24T00:40:15;7.83;;;2.47;;
78877;SDS011;68257;43.514;1.498;2023-04-24T00:42:40;6.95;;;2.30;;
78877;SDS011;68257;43.514;1.498;2023-04-24T00:45:06;7.00;;;2.60;;
78877;SDS011;68257;43.514;1.498;2023-04-24T00:47:35;7.00;;;2.33;;
78877;SDS011;68257;43.514;1.498;2023-04-24T00:50:01;5.60;;;1.97;;
78877;SDS011;68257;43.514;1.498;2023-04-24T00:52:28;7.07;;;2.40;;
78877;SDS011;68257;43.514;1.498;2023-04-24T00:54:56;6.60;;;2.75;;
78877;SDS011;68257;43.514;1.498;2023-04-24T00:57:21;4.73;;;2.33;;
78877;SDS011;68257;43.514;1.498;2023-04-24T00:59:48;6.40;;;2.33;;
78877;SDS011;68257;43.514;1.498;2023-04-24T01:02:14;6.90;;;2.35;;
78877;SDS011;68257;43.514;1.498;2023-04-24T01:04:40;7.00;;;1.83;;
78877;SDS011;68257;43.514;1.498;2023-04-24T01:07:06;7.57;;;1.92;;
78877;SDS011;68257;43.514;1.498;2023-04-24T01:09:35;7.20;;;2.10;;
78877;SDS011;68257;43.514;1.498;2023-04-24T01:12:02;5.90;;;2.10;;
78877;SDS011;68257;43.514;1.498;2023-04-24T01:14:28;8.05;;;1.70;;
78877;SDS011;68257;43.514;1.498;2023-04-24T01:16:53;6.27;;;1.90;;
78877;SDS011;68257;43.514;1.498;2023-04-24T01:19:18;6.03;;;1.80;;
78877;SDS011;68257;43.514;1.498;2023-04-24T01:21:44;5.30;;;2.08;;
78877;SDS011;68257;43.514;1.498;2023-04-24T01:24:12;6.47;;;2.00;;
78877;SDS011;68257;43.514;1.498;2023-04-24T01:26:38;7.45;;;2.00;;
78877;SDS011;68257;43.514;1.498;2023-04-24T01:29:03;5.27;;;2.00;;
78877;SDS011;68257;43.514;1.498;2023-04-24T01:31:28;5.10;;;1.87;;
78877;SDS011;68257;43.514;1.498;2023-04-24T01:33:54;6.25;;;1.88;;
78877;SDS011;68257;43.514;1.498;2023-04-24T01:36:21;8.38;;;1.77;;
78877;SDS011;68257;43.514;1.498;2023-04-24T01:38:46;6.13;;;2.10;;
78877;SDS011;68257;43.514;1.498;2023-04-24T01:41:12;6.35;;;1.88;;
78877;SDS011;68257;43.514;1.498;2023-04-24T01:43:37;6.07;;;1.90;;
78877;SDS011;68257;43.514;1.498;2023-04-24T01:46:03;7.50;;;2.10;;
78877;SDS011;68257;43.514;1.498;2023-04-24T01:48:28;5.43;;;1.80;;
78877;SDS011;68257;43.514;1.498;2023-04-24T01:50:55;5.55;;;1.85;;
78877;SDS011;68257;43.514;1.498;2023-04-24T01:53:21;6.05;;;1.70;;
78877;SDS011;68257;43.514;1.498;2023-04-24T01:55:47;6.13;;;1.73;;
78877;SDS011;68257;43.514;1.498;2023-04-24T01:58:12;7.00;;;1.87;;
78877;SDS011;68257;43.514;1.498;2023-04-24T02:00:38;7.70;;;1.88;;
78877;SDS011;68257;43.514;1.498;2023-04-24T02:03:03;5.10;;;1.87;;
78877;SDS011;68257;43.514;1.498;2023-04-24T02:05:28;6.27;;;1.70;;
78877;SDS011;68257;43.514;1.498;2023-04-24T02:07:54;4.87;;;1.80;;
78877;SDS011;68257;43.514;1.498;2023-04-24T02:10:20;5.22;;;1.80;;
78877;SDS011;68257;43.514;1.498;2023-04-24T02:12:45;5.10;;;2.00;;
78877;SDS011;68257;43.514;1.498;2023-04-24T02:15:11;3.78;;;1.65;;
78877;SDS011;68257;43.514;1.498;2023-04-24T02:17:37;6.30;;;1.80;;
78877;SDS011;68257;43.514;1.498;2023-04-24T02:20:03;6.10;;;1.70;;
78877;SDS011;68257;43.514;1.498;2023-04-24T02:22:29;4.43;;;1.75;;
78877;SDS011;68257;43.514;1.498;2023-04-24T02:24:55;6.03;;;1.80;;
78877;SDS011;68257;43.514;1.498;2023-04-24T02:27:20;6.13;;;2.05;;
78877;SDS011;68257;43.514;1.498;2023-04-24T02:29:46;5.32;;;1.75;;
78877;SDS011;68257;43.514;1.498;2023-04-24T02:32:11;4.30;;;1.73;;
78877;SDS011;68257;43.514;1.498;2023-04-24T02:34:37;7.43;;;1.80;;
78877;SDS011;68257;43.514;1.498;2023-04-24T02:37:02;6.85;;;1.90;;
78877;SDS011;68257;43.514;1.498;2023-04-24T02:39:28;8.20;;;1.97;;
78877;SDS011;68257;43.514;1.498;2023-04-24T02:41:53;5.23;;;1.50;;
78877;SDS011;68257;43.514;1.498;2023-04-24T02:44:19;5.37;;;1.90;;
78877;SDS011;68257;43.514;1.498;2023-04-24T02:46:44;5.80;;;2.15;;
78877;SDS011;68257;43.514;1.498;2023-04-24T02:49:10;6.57;;;1.57;;
78877;SDS011;68257;43.514;1.498;2023-04-24T02:51:36;5.03;;;1.70;;
78877;SDS011;68257;43.514;1.498;2023-04-24T02:54:05;6.82;;;1.77;;
78877;SDS011;68257;43.514;1.498;2023-04-24T02:56:31;8.93;;;1.60;;
78877;SDS011;68257;43.514;1.498;2023-04-24T02:58:56;8.40;;;1.80;;
78877;SDS011;68257;43.514;1.498;2023-04-24T03:01:21;5.60;;;1.40;;
78877;SDS011;68257;43.514;1.498;2023-04-24T03:03:47;7.03;;;1.67;;
78877;SDS011;68257;43.514;1.498;2023-04-24T03:06:12;4.30;;;1.50;;
78877;SDS011;68257;43.514;1.498;2023-04-24T03:08:37;8.20;;;1.53;;
78877;SDS011;68257;43.514;1.498;2023-04-24T03:11:03;9.07;;;1.70;;
78877;SDS011;68257;43.514;1.498;2023-04-24T03:13:28;7.68;;;1.52;;
78877;SDS011;68257;43.514;1.498;2023-04-24T03:15:54;5.50;;;1.33;;
78877;SDS011;68257;43.514;1.498;2023-04-24T03:18:19;8.07;;;1.50;;
78877;SDS011;68257;43.514;1.498;2023-04-24T03:20:47;7.20;;;1.10;;
78877;SDS011;68257;43.514;1.498;2023-04-24T03:23:13;5.53;;;1.67;;
78877;SDS011;68257;43.514;1.498;2023-04-24T03:25:39;5.47;;;1.30;;
78877;SDS011;68257;43.514;1.498;2023-04-24T03:28:04;10.20;;;1.52;;
78877;SDS011;68257;43.514;1.498;2023-04-24T03:30:30;4.73;;;1.30;;
78877;SDS011;68257;43.514;1.498;2023-04-24T03:32:55;7.33;;;1.50;;
78877;SDS011;68257;43.514;1.498;2023-04-24T03:35:21;4.70;;;1.50;;
78877;SDS011;68257;43.514;1.498;2023-04-24T03:37:47;7.47;;;1.30;;
78877;SDS011;68257;43.514;1.498;2023-04-24T03:40:12;6.20;;;1.40;;
78877;SDS011;68257;43.514;1.498;2023-04-24T03:42:37;4.93;;;1.30;;
78877;SDS011;68257;43.514;1.498;2023-04-24T03:45:03;7.63;;;1.90;;
78877;SDS011;68257;43.514;1.498;2023-04-24T03:47:29;5.50;;;1.40;;
78877;SDS011;68257;43.514;1.498;2023-04-24T03:49:54;5.93;;;1.60;;
78877;SDS011;68257;43.514;1.498;2023-04-24T03:52:20;8.00;;;1.73;;
78877;SDS011;68257;43.514;1.498;2023-04-24T03:54:46;7.87;;;1.43;;
78877;SDS011;68257;43.514;1.498;2023-04-24T03:57:11;11.57;;;1.63;;
78877;SDS011;68257;43.514;1.498;2023-04-24T03:59:37;7.40;;;1.60;;
78877;SDS011;68257;43.514;1.498;2023-04-24T04:02:02;5.28;;;1.60;;
78877;SDS011;68257;43.514;1.498;2023-04-24T04:04:27;8.53;;;2.33;;
78877;SDS011;68257;43.514;1.498;2023-04-24T04:06:53;7.93;;;1.73;;
78877;SDS011;68257;43.514;1.498;2023-04-24T04:09:18;6.27;;;1.50;;
78877;SDS011;68257;43.514;1.498;2023-04-24T04:11:44;7.93;;;1.33;;
78877;SDS011;68257;43.514;1.498;2023-04-24T04:14:09;5.60;;;1.45;;
78877;SDS011;68257;43.514;1.498;2023-04-24T04:16:34;6.53;;;1.58;;
78877;SDS011;68257;43.514;1.498;2023-04-24T04:19:01;7.97;;;1.67;;
78877;SDS011;68257;43.514;1.498;2023-04-24T04:21:28;7.68;;;1.70;;
78877;SDS011;68257;43.514;1.498;2023-04-24T04:23:54;9.07;;;1.60;;
78877;SDS011;68257;43.514;1.498;2023-04-24T04:26:19;6.83;;;1.37;;
78877;SDS011;68257;43.514;1.498;2023-04-24T04:28:46;6.75;;;1.60;;
78877;SDS011;68257;43.514;1.498;2023-04-24T04:31:12;6.60;;;1.60;;
78877;SDS011;68257;43.514;1.498;2023-04-24T04:33:38;5.88;;;1.30;;
78877;SDS011;68257;43.514;1.498;2023-04-24T04:36:04;6.45;;;1.27;;
78877;SDS011;68257;43.514;1.498;2023-04-24T04:38:30;7.90;;;1.70;;
78877;SDS011;68257;43.514;1.498;2023-04-24T04:40:55;6.93;;;1.40;;
78877;SDS011;68257;43.514;1.498;2023-04-24T04:43:22;5.07;;;1.60;;
78877;SDS011;68257;43.514;1.498;2023-04-24T04:45:49;7.63;;;1.35;;
78877;SDS011;68257;43.514;1.498;2023-04-24T04:48:16;5.70;;;1.23;;
78877;SDS011;68257;43.514;1.498;2023-04-24T04:50:42;8.07;;;1.52;;
78877;SDS011;68257;43.514;1.498;2023-04-24T04:53:08;6.90;;;1.13;;
78877;SDS011;68257;43.514;1.498;2023-04-24T04:55:33;7.93;;;1.40;;
78877;SDS011;68257;43.514;1.498;2023-04-24T04:57:58;7.57;;;1.50;;
78877;SDS011;68257;43.514;1.498;2023-04-24T05:00:25;7.45;;;1.67;;
78877;SDS011;68257;43.514;1.498;2023-04-24T05:02:50;7.67;;;1.67;;
78877;SDS011;68257;43.514;1.498;2023-04-24T05:05:16;6.38;;;1.52;;
78877;SDS011;68257;43.514;1.498;2023-04-24T05:07:42;8.88;;;1.58;;
78877;SDS011;68257;43.514;1.498;2023-04-24T05:10:08;6.43;;;1.77;;
78877;SDS011;68257;43.514;1.498;2023-04-24T05:12:34;8.55;;;1.50;;
78877;SDS011;68257;43.514;1.498;2023-04-24T05:14:59;4.50;;;1.40;;
78877;SDS011;68257;43.514;1.498;2023-04-24T05:17:25;7.37;;;1.60;;
78877;SDS011;68257;43.514;1.498;2023-04-24T05:19:50;7.50;;;1.45;;
78877;SDS011;68257;43.514;1.498;2023-04-24T05:22:16;7.25;;;1.90;;
78877;SDS011;68257;43.514;1.498;2023-04-24T05:24:43;5.63;;;1.50;;
78877;SDS011;68257;43.514;1.498;2023-04-24T05:27:08;7.07;;;1.52;;
78877;SDS011;68257;43.514;1.498;2023-04-24T05:29:34;6.60;;;1.60;;
78877;SDS011;68257;43.514;1.498;2023-04-24T05:32:00;6.90;;;1.70;;
78877;SDS011;68257;43.514;1.498;2023-04-24T05:34:25;7.88;;;1.58;;
78877;SDS011;68257;43.514;1.498;2023-04-24T05:36:51;7.97;;;1.70;;
78877;SDS011;68257;43.514;1.498;2023-04-24T05:39:16;8.35;;;1.65;;
78877;SDS011;68257;43.514;1.498;2023-04-24T05:41:42;7.43;;;1.50;;
78877;SDS011;68257;43.514;1.498;2023-04-24T05:44:08;7.93;;;1.95;;
78877;SDS011;68257;43.514;1.498;2023-04-24T05:46:33;7.18;;;2.10;;
78877;SDS011;68257;43.514;1.498;2023-04-24T05:48:59;8.83;;;2.20;;
78877;SDS011;68257;43.514;1.498;2023-04-24T05:51:24;7.87;;;1.90;;
78877;SDS011;68257;43.514;1.498;2023-04-24T05:53:50;8.95;;;1.85;;
78877;SDS011;68257;43.514;1.498;2023-04-24T05:56:16;9.55;;;2.72;;
78877;SDS011;68257;43.514;1.498;2023-04-24T05:58:42;10.53;;;1.93;;
78877;SDS011;68257;43.514;1.498;2023-04-24T06:01:07;10.30;;;1.90;;
78877;SDS011;68257;43.514;1.498;2023-04-24T06:03:32;8.53;;;1.97;;
78877;SDS011;68257;43.514;1.498;2023-04-24T06:05:58;7.00;;;1.83;;
78877;SDS011;68257;43.514;1.498;2023-04-24T06:08:23;9.53;;;1.53;;
78877;SDS011;68257;43.514;1.498;2023-04-24T06:10:49;7.97;;;1.67;;
78877;SDS011;68257;43.514;1.498;2023-04-24T06:13:14;8.83;;;2.30;;
78877;SDS011;68257;43.514;1.498;2023-04-24T06:15:40;10.27;;;1.92;;
78877;SDS011;68257;43.514;1.498;2023-04-24T06:18:06;9.70;;;1.80;;
78877;SDS011;68257;43.514;1.498;2023-04-24T06:20:31;6.37;;;1.57;;
78877;SDS011;68257;43.514;1.498;2023-04-24T06:22:57;7.57;;;1.80;;
78877;SDS011;68257;43.514;1.498;2023-04-24T06:25:24;6.67;;;1.83;;
78877;SDS011;68257;43.514;1.498;2023-04-24T06:27:50;8.85;;;1.98;;
78877;SDS011;68257;43.514;1.498;2023-04-24T06:30:16;8.93;;;2.00;;
78877;SDS011;68257;43.514;1.498;2023-04-24T06:32:41;8.47;;;1.80;;
78877;SDS011;68257;43.514;1.498;2023-04-24T06:35:07;8.50;;;1.90;;
78877;SDS011;68257;43.514;1.498;2023-04-24T06:37:34;10.02;;;2.80;;
78877;SDS011;68257;43.514;1.498;2023-04-24T06:40:00;6.30;;;1.77;;
78877;SDS011;68257;43.514;1.498;2023-04-24T06:42:25;9.03;;;1.90;;
78877;SDS011;68257;43.514;1.498;2023-04-24T06:44:51;8.10;;;1.87;;
78877;SDS011;68257;43.514;1.498;2023-04-24T06:47:16;6.67;;;1.77;;
78877;SDS011;68257;43.514;1.498;2023-04-24T06:49:41;7.05;;;2.00;;
78877;SDS011;68257;43.514;1.498;2023-04-24T06:52:07;7.40;;;1.80;;
78877;SDS011;68257;43.514;1.498;2023-04-24T06:54:32;9.57;;;1.90;;
78877;SDS011;68257;43.514;1.498;2023-04-24T06:56:58;8.63;;;2.40;;
78877;SDS011;68257;43.514;1.498;2023-04-24T06:59:25;8.00;;;2.08;;
78877;SDS011;68257;43.514;1.498;2023-04-24T07:01:51;6.77;;;1.60;;
78877;SDS011;68257;43.514;1.498;2023-04-24T07:04:17;9.70;;;2.42;;
78877;SDS011;68257;43.514;1.498;2023-04-24T07:06:43;8.20;;;2.00;;
78877;SDS011;68257;43.514;1.498;2023-04-24T07:09:12;7.05;;;1.95;;
78877;SDS011;68257;43.514;1.498;2023-04-24T07:11:38;7.82;;;2.28;;
78877;SDS011;68257;43.514;1.498;2023-04-24T07:14:05;7.93;;;2.50;;
78877;SDS011;68257;43.514;1.498;2023-04-24T07:16:31;8.88;;;1.85;;
78877;SDS011;68257;43.514;1.498;2023-04-24T07:18:57;6.70;;;2.10;;
78877;SDS011;68257;43.514;1.498;2023-04-24T07:21:22;9.27;;;2.45;;
78877;SDS011;68257;43.514;1.498;2023-04-24T07:23:47;7.83;;;1.77;;
78877;SDS011;68257;43.514;1.498;2023-04-24T07:26:13;7.37;;;1.90;;
78877;SDS011;68257;43.514;1.498;2023-04-24T07:28:39;6.28;;;1.45;;
78877;SDS011;68257;43.514;1.498;2023-04-24T07:31:05;8.90;;;2.00;;
78877;SDS011;68257;43.514;1.498;2023-04-24T07:33:31;11.82;;;2.63;;
78877;SDS011;68257;43.514;1.498;2023-04-24T07:35:56;9.40;;;2.17;;
78877;SDS011;68257;43.514;1.498;2023-04-24T07:38:22;6.90;;;1.90;;
78877;SDS011;68257;43.514;1.498;2023-04-24T07:40:47;7.37;;;1.70;;
78877;SDS011;68257;43.514;1.498;2023-04-24T07:43:13;6.85;;;1.70;;
78877;SDS011;68257;43.514;1.498;2023-04-24T07:45:39;6.33;;;1.63;;
78877;SDS011;68257;43.514;1.498;2023-04-24T07:48:04;5.13;;;1.70;;
78877;SDS011;68257;43.514;1.498;2023-04-24T07:50:30;6.68;;;1.58;;
78877;SDS011;68257;43.514;1.498;2023-04-24T07:52:56;5.53;;;1.70;;
78877;SDS011;68257;43.514;1.498;2023-04-24T07:55:21;6.60;;;1.30;;
78877;SDS011;68257;43.514;1.498;2023-04-24T07:57:47;5.43;;;1.13;;
78877;SDS011;68257;43.514;1.498;2023-04-24T08:00:12;4.65;;;1.20;;
78877;SDS011;68257;43.514;1.498;2023-04-24T08:02:38;4.03;;;1.20;;
78877;SDS011;68257;43.514;1.498;2023-04-24T08:05:04;5.30;;;1.30;;
78877;SDS011;68257;43.514;1.498;2023-04-24T08:07:30;6.17;;;1.40;;
78877;SDS011;68257;43.514;1.498;2023-04-24T08:09:55;6.30;;;1.38;;
78877;SDS011;68257;43.514;1.498;2023-04-24T08:12:20;4.40;;;1.00;;
78877;SDS011;68257;43.514;1.498;2023-04-24T08:14:46;7.47;;;1.23;;
78877;SDS011;68257;43.514;1.498;2023-04-24T08:17:11;8.83;;;1.40;;
78877;SDS011;68257;43.514;1.498;2023-04-24T08:19:37;4.40;;;1.10;;
78877;SDS011;68257;43.514;1.498;2023-04-24T08:22:02;5.40;;;1.23;;
78877;SDS011;68257;43.514;1.498;2023-04-24T08:24:29;5.60;;;1.10;;
78877;SDS011;68257;43.514;1.498;2023-04-24T08:26:54;4.72;;;0.90;;
78877;SDS011;68257;43.514;1.498;2023-04-24T08:29:21;8.30;;;1.50;;
78877;SDS011;68257;43.514;1.498;2023-04-24T08:31:47;4.97;;;1.20;;
78877;SDS011;68257;43.514;1.498;2023-04-24T08:34:12;5.53;;;1.10;;
78877;SDS011;68257;43.514;1.498;2023-04-24T08:36:37;5.20;;;1.40;;
78877;SDS011;68257;43.514;1.498;2023-04-24T08:39:05;6.53;;;1.10;;
78877;SDS011;68257;43.514;1.498;2023-04-24T08:41:31;4.73;;;1.30;;
78877;SDS011;68257;43.514;1.498;2023-04-24T08:43:56;6.68;;;1.27;;
78877;SDS011;68257;43.514;1.498;2023-04-24T08:46:23;3.77;;;1.00;;
78877;SDS011;68257;43.514;1.498;2023-04-24T08:48:51;4.05;;;1.17;;
78877;SDS011;68257;43.514;1.498;2023-04-24T08:51:17;5.90;;;1.45;;
78877;SDS011;68257;43.514;1.498;2023-04-24T08:53:42;5.30;;;1.20;;
78877;SDS011;68257;43.514;1.498;2023-04-24T08:56:08;3.83;;;1.20;;
78877;SDS011;68257;43.514;1.498;2023-04-24T08:58:34;5.78;;;1.40;;
78877;SDS011;68257;43.514;1.498;2023-04-24T09:01:00;5.22;;;1.00;;
78877;SDS011;68257;43.514;1.498;2023-04-24T09:03:28;4.05;;;1.33;;
78877;SDS011;68257;43.514;1.498;2023-04-24T09:05:53;3.57;;;0.90;;
78877;SDS011;68257;43.514;1.498;2023-04-24T09:08:20;3.97;;;1.08;;
78877;SDS011;68257;43.514;1.498;2023-04-24T09:10:49;4.38;;;1.13;;
78877;SDS011;68257;43.514;1.498;2023-04-24T09:13:15;5.80;;;1.10;;
78877;SDS011;68257;43.514;1.498;2023-04-24T09:15:40;5.67;;;1.13;;
78877;SDS011;68257;43.514;1.498;2023-04-24T09:18:06;4.83;;;1.30;;
78877;SDS011;68257;43.514;1.498;2023-04-24T09:20:31;5.33;;;1.53;;
78877;SDS011;68257;43.514;1.498;2023-04-24T09:22:57;4.68;;;1.30;;
78877;SDS011;68257;43.514;1.498;2023-04-24T09:25:25;6.43;;;1.83;;
78877;SDS011;68257;43.514;1.498;2023-04-24T09:27:59;3.35;;;1.10;;
78877;SDS011;68257;43.514;1.498;2023-04-24T09:30:25;4.07;;;1.00;;
78877;SDS011;68257;43.514;1.498;2023-04-24T09:33:01;4.57;;;1.23;;
78877;SDS011;68257;43.514;1.498;2023-04-24T09:35:34;2.75;;;1.02;;
78877;SDS011;68257;43.514;1.498;2023-04-24T09:38:00;3.80;;;1.00;;
78877;SDS011;68257;43.514;1.498;2023-04-24T09:40:25;2.70;;;0.93;;
78877;SDS011;68257;43.514;1.498;2023-04-24T09:42:55;4.03;;;1.10;;
78877;SDS011;68257;43.514;1.498;2023-04-24T09:45:22;3.90;;;1.00;;
78877;SDS011;68257;43.514;1.498;2023-04-24T09:47:51;3.92;;;0.90;;
78877;SDS011;68257;43.514;1.498;2023-04-24T09:50:18;3.78;;;0.88;;
78877;SDS011;68257;43.514;1.498;2023-04-24T09:52:45;3.83;;;1.07;;
78877;SDS011;68257;43.514;1.498;2023-04-24T09:55:15;3.67;;;1.23;;
78877;SDS011;68257;43.514;1.498;2023-04-24T09:57:49;4.85;;;1.00;;
78877;SDS011;68257;43.514;1.498;2023-04-24T10:00:21;4.23;;;1.20;;
78877;SDS011;68257;43.514;1.498;2023-04-24T10:02:54;4.65;;;1.20;;
78877;SDS011;68257;43.514;1.498;2023-04-24T10:05:23;5.43;;;1.30;;
78877;SDS011;68257;43.514;1.498;2023-04-24T10:07:50;4.28;;;1.20;;
78877;SDS011;68257;43.514;1.498;2023-04-24T10:10:16;4.78;;;1.10;;
78877;SDS011;68257;43.514;1.498;2023-04-24T10:12:41;3.60;;;1.03;;
78877;SDS011;68257;43.514;1.498;2023-04-24T10:15:09;5.43;;;1.30;;
78877;SDS011;68257;43.514;1.498;2023-04-24T10:17:37;4.27;;;1.00;;
78877;SDS011;68257;43.514;1.498;2023-04-24T10:20:03;3.33;;;1.00;;
78877;SDS011;68257;43.514;1.498;2023-04-24T10:22:29;6.28;;;1.20;;
78877;SDS011;68257;43.514;1.498;2023-04-24T10:24:55;4.10;;;1.10;;
78877;SDS011;68257;43.514;1.498;2023-04-24T10:27:21;3.80;;;1.00;;
78877;SDS011;68257;43.514;1.498;2023-04-24T10:29:46;3.60;;;1.58;;
78877;SDS011;68257;43.514;1.498;2023-04-24T10:32:12;3.90;;;1.23;;
78877;SDS011;68257;43.514;1.498;2023-04-24T10:34:38;4.07;;;1.33;;
78877;SDS011;68257;43.514;1.498;2023-04-24T10:37:03;3.27;;;2.20;;
78877;SDS011;68257;43.514;1.498;2023-04-24T10:39:29;3.30;;;2.13;;
78877;SDS011;68257;43.514;1.498;2023-04-24T10:41:55;5.15;;;1.58;;
78877;SDS011;68257;43.514;1.498;2023-04-24T10:44:24;4.30;;;1.63;;
78877;SDS011;68257;43.514;1.498;2023-04-24T10:46:52;5.17;;;1.43;;
78877;SDS011;68257;43.514;1.498;2023-04-24T10:49:27;3.83;;;1.88;;
78877;SDS011;68257;43.514;1.498;2023-04-24T10:51:53;3.28;;;1.50;;
78877;SDS011;68257;43.514;1.498;2023-04-24T10:57:26;4.35;;;1.75;;
78877;SDS011;68257;43.514;1.498;2023-04-24T11:02:39;3.10;;;1.10;;
78877;SDS011;68257;43.514;1.498;2023-04-24T11:05:08;3.67;;;1.57;;
78877;SDS011;68257;43.514;1.498;2023-04-24T11:10:54;4.07;;;1.23;;
78877;SDS011;68257;43.514;1.498;2023-04-24T11:13:22;4.18;;;1.20;;
78877;SDS011;68257;43.514;1.498;2023-04-24T11:18:59;3.93;;;1.20;;
78877;SDS011;68257;43.514;1.498;2023-04-24T11:21:30;3.72;;;1.02;;
78877;SDS011;68257;43.514;1.498;2023-04-24T11:23:57;3.38;;;1.42;;
78877;SDS011;68257;43.514;1.498;2023-04-24T11:26:22;4.03;;;1.13;;
78877;SDS011;68257;43.514;1.498;2023-04-24T11:29:05;4.20;;;1.30;;
78877;SDS011;68257;43.514;1.498;2023-04-24T11:34:09;4.13;;;1.45;;
78877;SDS011;68257;43.514;1.498;2023-04-24T11:36:37;3.63;;;1.15;;
78877;SDS011;68257;43.514;1.498;2023-04-24T11:39:02;3.03;;;1.00;;
78877;SDS011;68257;43.514;1.498;2023-04-24T11:41:28;5.40;;;1.50;;
78877;SDS011;68257;43.514;1.498;2023-04-24T11:43:53;4.17;;;1.20;;
78877;SDS011;68257;43.514;1.498;2023-04-24T11:46:20;4.50;;;1.30;;
78877;SDS011;68257;43.514;1.498;2023-04-24T11:48:46;4.63;;;1.20;;
78877;SDS011;68257;43.514;1.498;2023-04-24T11:51:12;3.30;;;1.10;;
78877;SDS011;68257;43.514;1.498;2023-04-24T11:53:38;3.00;;;1.00;;
78877;SDS011;68257;43.514;1.498;2023-04-24T11:56:04;5.13;;;1.27;;
78877;SDS011;68257;43.514;1.498;2023-04-24T11:58:34;5.70;;;1.33;;
78877;SDS011;68257;43.514;1.498;2023-04-24T12:01:05;4.75;;;1.48;;
78877;SDS011;68257;43.514;1.498;2023-04-24T12:03:31;3.80;;;1.20;;
78877;SDS011;68257;43.514;1.498;2023-04-24T12:06:06;2.90;;;1.20;;
78877;SDS011;68257;43.514;1.498;2023-04-24T12:08:35;4.13;;;1.25;;
78877;SDS011;68257;43.514;1.498;2023-04-24T12:11:02;4.13;;;1.65;;
78877;SDS011;68257;43.514;1.498;2023-04-24T12:13:28;3.63;;;1.63;;
78877;SDS011;68257;43.514;1.498;2023-04-24T12:15:54;5.17;;;1.77;;
78877;SDS011;68257;43.514;1.498;2023-04-24T12:18:23;3.92;;;1.67;;
78877;SDS011;68257;43.514;1.498;2023-04-24T12:20:49;4.45;;;1.75;;
78877;SDS011;68257;43.514;1.498;2023-04-24T12:23:14;7.13;;;1.90;;
78877;SDS011;68257;43.514;1.498;2023-04-24T12:25:40;4.97;;;1.80;;
78877;SDS011;68257;43.514;1.498;2023-04-24T12:30:38;5.03;;;2.10;;
78877;SDS011;68257;43.514;1.498;2023-04-24T12:33:05;3.25;;;1.70;;
78877;SDS011;68257;43.514;1.498;2023-04-24T12:35:31;3.53;;;1.40;;
78877;SDS011;68257;43.514;1.498;2023-04-24T12:38:13;4.82;;;1.80;;
78877;SDS011;68257;43.514;1.498;2023-04-24T12:40:40;3.72;;;2.47;;
78877;SDS011;68257;43.514;1.498;2023-04-24T12:43:16;4.27;;;1.90;;
78877;SDS011;68257;43.514;1.498;2023-04-24T12:45:43;5.20;;;1.80;;
78877;SDS011;68257;43.514;1.498;2023-04-24T12:48:09;4.35;;;2.05;;
78877;SDS011;68257;43.514;1.498;2023-04-24T12:50:35;3.70;;;1.70;;
78877;SDS011;68257;43.514;1.498;2023-04-24T12:53:01;3.85;;;1.70;;
78877;SDS011;68257;43.514;1.498;2023-04-24T12:55:26;5.00;;;1.70;;
78877;SDS011;68257;43.514;1.498;2023-04-24T12:57:51;2.83;;;1.50;;
78877;SDS011;68257;43.514;1.498;2023-04-24T13:00:18;5.93;;;2.17;;
78877;SDS011;68257;43.514;1.498;2023-04-24T13:02:43;4.67;;;2.03;;
78877;SDS011;68257;43.514;1.498;2023-04-24T13:05:09;5.18;;;2.60;;
78877;SDS011;68257;43.514;1.498;2023-04-24T13:07:36;5.03;;;2.40;;
78877;SDS011;68257;43.514;1.498;2023-04-24T13:10:01;4.13;;;2.33;;
78877;SDS011;68257;43.514;1.498;2023-04-24T13:12:27;3.93;;;2.60;;
78877;SDS011;68257;43.514;1.498;2023-04-24T13:14:53;4.60;;;2.10;;
78877;SDS011;68257;43.514;1.498;2023-04-24T13:17:18;4.15;;;2.22;;
78877;SDS011;68257;43.514;1.498;2023-04-24T13:19:44;3.60;;;2.20;;
78877;SDS011;68257;43.514;1.498;2023-04-24T13:22:10;5.90;;;2.85;;
78877;SDS011;68257;43.514;1.498;2023-04-24T13:24:36;5.20;;;2.40;;
78877;SDS011;68257;43.514;1.498;2023-04-24T13:27:03;4.65;;;2.35;;
78877;SDS011;68257;43.514;1.498;2023-04-24T13:29:28;5.00;;;2.00;;
78877;SDS011;68257;43.514;1.498;2023-04-24T13:31:54;3.97;;;1.90;;
78877;SDS011;68257;43.514;1.498;2023-04-24T13:34:20;3.50;;;1.80;;
78877;SDS011;68257;43.514;1.498;2023-04-24T13:36:46;4.30;;;2.00;;
78877;SDS011;68257;43.514;1.498;2023-04-24T13:39:11;4.43;;;1.97;;
78877;SDS011;68257;43.514;1.498;2023-04-24T13:41:37;4.13;;;1.90;;
78877;SDS011;68257;43.514;1.498;2023-04-24T13:44:03;5.78;;;1.95;;
78877;SDS011;68257;43.514;1.498;2023-04-24T13:46:29;4.88;;;2.55;;
78877;SDS011;68257;43.514;1.498;2023-04-24T13:48:55;4.50;;;1.70;;
78877;SDS011;68257;43.514;1.498;2023-04-24T13:51:23;5.00;;;2.10;;
78877;SDS011;68257;43.514;1.498;2023-04-24T13:53:50;4.60;;;1.80;;
78877;SDS011;68257;43.514;1.498;2023-04-24T13:56:16;5.43;;;1.80;;
78877;SDS011;68257;43.514;1.498;2023-04-24T13:58:41;5.93;;;3.77;;
78877;SDS011;68257;43.514;1.498;2023-04-24T14:01:07;6.40;;;4.18;;
78877;SDS011;68257;43.514;1.498;2023-04-24T14:03:33;5.90;;;2.20;;
78877;SDS011;68257;43.514;1.498;2023-04-24T14:05:58;3.55;;;1.70;;
78877;SDS011;68257;43.514;1.498;2023-04-24T14:08:24;3.90;;;1.70;;
78877;SDS011;68257;43.514;1.498;2023-04-24T14:10:50;4.68;;;1.70;;
78877;SDS011;68257;43.514;1.498;2023-04-24T14:13:15;5.53;;;1.63;;
78877;SDS011;68257;43.514;1.498;2023-04-24T14:15:41;5.40;;;1.70;;
78877;SDS011;68257;43.514;1.498;2023-04-24T14:18:06;3.85;;;1.67;;
78877;SDS011;68257;43.514;1.498;2023-04-24T14:20:32;5.33;;;2.00;;
78877;SDS011;68257;43.514;1.498;2023-04-24T14:22:57;6.50;;;2.00;;
78877;SDS011;68257;43.514;1.498;2023-04-24T14:25:24;4.82;;;1.65;;
78877;SDS011;68257;43.514;1.498;2023-04-24T14:27:50;5.80;;;1.93;;
78877;SDS011;68257;43.514;1.498;2023-04-24T14:30:15;4.50;;;1.60;;
78877;SDS011;68257;43.514;1.498;2023-04-24T14:32:41;4.40;;;1.83;;
78877;SDS011;68257;43.514;1.498;2023-04-24T14:35:06;4.97;;;1.70;;
78877;SDS011;68257;43.514;1.498;2023-04-24T14:37:32;5.05;;;1.60;;
78877;SDS011;68257;43.514;1.498;2023-04-24T14:39:58;6.45;;;1.30;;
78877;SDS011;68257;43.514;1.498;2023-04-24T14:42:23;4.13;;;1.30;;
78877;SDS011;68257;43.514;1.498;2023-04-24T14:44:49;4.30;;;1.27;;
78877;SDS011;68257;43.514;1.498;2023-04-24T14:47:15;5.40;;;1.45;;
78877;SDS011;68257;43.514;1.498;2023-04-24T14:49:42;3.58;;;1.30;;
78877;SDS011;68257;43.514;1.498;2023-04-24T14:52:08;5.70;;;1.47;;
78877;SDS011;68257;43.514;1.498;2023-04-24T14:54:34;4.50;;;1.27;;
78877;SDS011;68257;43.514;1.498;2023-04-24T14:57:00;7.27;;;1.60;;
78877;SDS011;68257;43.514;1.498;2023-04-24T14:59:26;3.97;;;1.30;;